createdAt,value
2022-10-06T00:01:40.329Z,85.31
2022-10-06T00:04:10.095Z,87.85
2022-10-06T00:06:39.828Z,90.26
2022-10-06T00:09:09.668Z,91.63
2022-10-06T00:11:39.395Z,92.83
2022-10-06T00:14:09.171Z,92.50
2022-10-06T00:16:41.521Z,94.32
2022-10-06T00:19:11.256Z,94.54
2022-10-06T00:21:41.067Z,94.50
2022-10-06T00:24:10.836Z,93.92
2022-10-06T00:26:40.618Z,92.91
2022-10-06T00:29:11.757Z,93.21
2022-10-06T00:31:45.160Z,93.76
2022-10-06T00:34:14.879Z,92.53
2022-10-06T00:36:44.607Z,92.36
2022-10-06T00:39:14.382Z,93.36
2022-10-06T00:41:44.099Z,93.01
2022-10-06T00:44:13.850Z,92.55
2022-10-06T00:46:48.335Z,92.20
2022-10-06T00:49:21.528Z,91.98
2022-10-06T00:51:54.904Z,91.91
2022-10-06T00:54:24.852Z,91.90
2022-10-06T00:56:55.335Z,92.29
2022-10-06T00:59:25.095Z,92.27
2022-10-06T01:02:04.763Z,91.86
2022-10-06T01:04:36.518Z,92.82
2022-10-06T01:07:06.912Z,92.82
2022-10-06T01:09:37.909Z,93.33
2022-10-06T01:12:10.925Z,92.83
2022-10-06T01:14:42.386Z,92.71
2022-10-06T01:17:21.106Z,92.54
2022-10-06T01:19:54.013Z,92.30
2022-10-06T01:22:31.898Z,91.20
2022-10-06T01:25:02.715Z,92.18
2022-10-06T01:27:34.765Z,92.01
2022-10-06T01:30:05.248Z,91.85
2022-10-06T01:32:37.941Z,91.33
2022-10-06T01:35:10.946Z,91.76
2022-10-06T01:37:44.758Z,91.56
2022-10-06T01:40:14.638Z,92.13
2022-10-06T01:42:44.381Z,92.19
2022-10-06T01:45:14.111Z,91.88
2022-10-06T01:47:43.848Z,92.19
2022-10-06T01:50:14.310Z,91.85
2022-10-06T01:52:47.567Z,91.75
2022-10-06T01:55:17.677Z,91.60
2022-10-06T01:57:47.730Z,91.08
2022-10-06T02:00:20.026Z,90.74
2022-10-06T02:02:50.884Z,90.00
2022-10-06T02:05:20.926Z,90.02
2022-10-06T02:07:57.159Z,89.88
2022-10-06T02:10:27.086Z,90.40
2022-10-06T02:12:57.522Z,90.17
2022-10-06T02:15:28.583Z,90.69
2022-10-06T02:17:58.321Z,90.07
2022-10-06T02:20:30.439Z,90.40
2022-10-06T02:23:02.863Z,90.32
2022-10-06T02:25:33.102Z,90.71
2022-10-06T02:28:02.907Z,90.46
2022-10-06T02:30:33.087Z,90.95
2022-10-06T02:33:03.043Z,91.05
2022-10-06T02:35:33.093Z,91.43
2022-10-06T02:38:05.602Z,90.70
2022-10-06T02:40:35.671Z,91.00
2022-10-06T02:43:05.426Z,90.51
2022-10-06T02:45:35.233Z,90.43
2022-10-06T02:48:05.031Z,90.87
2022-10-06T02:50:35.698Z,90.87
2022-10-06T02:53:09.804Z,91.45
2022-10-06T02:55:39.602Z,91.43
2022-10-06T02:58:11.359Z,90.89
2022-10-06T03:00:41.213Z,90.56
2022-10-06T03:03:11.006Z,90.50
2022-10-06T03:05:40.756Z,89.79
2022-10-06T03:08:13.499Z,89.75
2022-10-06T03:10:43.335Z,90.22
2022-10-06T03:13:13.108Z,89.44
2022-10-06T03:15:43.389Z,89.92
2022-10-06T03:18:13.395Z,90.82
2022-10-06T03:20:43.126Z,90.95
2022-10-06T03:23:15.567Z,90.70
2022-10-06T03:25:45.413Z,90.43
2022-10-06T03:28:15.230Z,91.08
2022-10-06T03:30:45.043Z,91.70
2022-10-06T03:33:14.784Z,91.53
2022-10-06T03:35:44.586Z,92.19
2022-10-06T03:38:16.960Z,92.65
2022-10-06T03:40:46.680Z,91.52
2022-10-06T03:43:16.687Z,91.73
2022-10-06T03:45:46.551Z,90.27
2022-10-06T03:48:16.303Z,89.46
2022-10-06T03:50:46.125Z,89.36
2022-10-06T03:53:18.896Z,89.76
2022-10-06T03:55:48.717Z,89.18
2022-10-06T03:58:19.809Z,89.42
2022-10-06T04:00:50.107Z,88.61
2022-10-06T04:03:22.435Z,88.97
2022-10-06T04:05:57.480Z,87.99
2022-10-06T04:08:33.579Z,88.25
2022-10-06T04:11:11.285Z,88.84
2022-10-06T04:13:41.752Z,88.59
2022-10-06T04:16:14.124Z,88.59
2022-10-06T04:18:46.053Z,88.43
2022-10-06T04:21:16.597Z,88.57
2022-10-06T04:23:50.226Z,88.65
2022-10-06T04:26:23.849Z,88.55
2022-10-06T04:28:57.177Z,88.78
2022-10-06T04:31:32.900Z,88.86
2022-10-06T04:34:04.345Z,89.75
2022-10-06T04:36:38.247Z,89.17
2022-10-06T04:39:13.475Z,89.17
2022-10-06T04:41:48.993Z,89.30
2022-10-06T04:44:26.236Z,89.58
2022-10-06T04:47:01.350Z,90.01
2022-10-06T04:49:32.210Z,90.19
2022-10-06T04:52:02.227Z,89.78
2022-10-06T04:54:38.626Z,89.85
2022-10-06T04:57:10.402Z,89.94
2022-10-06T04:59:53.431Z,89.60
2022-10-06T05:02:25.706Z,89.70
2022-10-06T05:04:59.254Z,89.63
2022-10-06T05:07:29.125Z,90.83
2022-10-06T05:10:03.194Z,90.71
2022-10-06T05:12:35.124Z,91.06
2022-10-06T05:15:09.736Z,90.62
2022-10-06T05:17:40.784Z,90.59
2022-10-06T05:20:13.701Z,90.38
2022-10-06T05:22:45.783Z,90.56
2022-10-06T05:25:19.348Z,89.87
2022-10-06T05:27:50.424Z,90.05
2022-10-06T05:30:21.226Z,91.03
2022-10-06T05:32:54.855Z,90.75
2022-10-06T05:35:24.688Z,90.92
2022-10-06T05:37:57.507Z,91.27
2022-10-06T05:40:30.923Z,92.36
2022-10-06T05:43:02.026Z,92.42
2022-10-06T05:45:33.044Z,92.02
2022-10-06T05:48:03.960Z,91.60
2022-10-06T05:50:34.983Z,91.69
2022-10-06T05:53:06.437Z,92.17
2022-10-06T05:55:39.906Z,91.42
2022-10-06T05:58:11.312Z,91.51
2022-10-06T06:00:43.987Z,92.71
2022-10-06T06:03:14.792Z,93.18
2022-10-06T06:05:45.903Z,94.36
2022-10-06T06:08:16.689Z,94.54
2022-10-06T06:10:49.938Z,94.93
2022-10-06T06:13:22.696Z,94.29
2022-10-06T06:16:09.257Z,94.16
2022-10-06T06:18:40.584Z,94.22
2022-10-06T06:21:13.536Z,93.22
2022-10-06T06:23:47.078Z,92.81
2022-10-06T06:26:23.583Z,92.49
2022-10-06T06:28:57.316Z,91.64
2022-10-06T06:31:29.889Z,91.82
2022-10-06T06:34:04.839Z,92.00
2022-10-06T06:36:36.899Z,92.52
2022-10-06T06:39:13.602Z,92.67
2022-10-06T06:41:48.912Z,91.61
2022-10-06T06:44:43.143Z,91.68
2022-10-06T06:47:26.741Z,91.03
2022-10-06T06:49:58.909Z,90.06
2022-10-06T06:52:30.116Z,90.00
2022-10-06T06:55:00.736Z,90.80
2022-10-06T06:57:33.634Z,93.68
2022-10-06T07:00:08.355Z,89.42
2022-10-06T07:02:40.954Z,88.60
2022-10-06T07:05:12.409Z,88.50
2022-10-06T07:07:44.416Z,88.42
2022-10-06T07:10:15.252Z,88.35
2022-10-06T07:12:48.821Z,89.30
2022-10-06T07:15:33.923Z,89.13
2022-10-06T07:18:18.817Z,89.18
2022-10-06T07:21:01.277Z,89.77
2022-10-06T07:23:50.138Z,88.87
2022-10-06T07:26:24.235Z,88.22
2022-10-06T07:29:00.085Z,88.33
2022-10-06T07:31:33.603Z,88.37
2022-10-06T07:34:06.552Z,87.63
2022-10-06T07:36:38.380Z,87.59
2022-10-06T07:39:11.243Z,87.65
2022-10-06T07:41:42.381Z,87.00
2022-10-06T07:44:15.773Z,86.58
2022-10-06T07:46:48.627Z,85.58
2022-10-06T07:49:22.727Z,85.49
2022-10-06T07:51:53.745Z,85.19
2022-10-06T07:54:27.451Z,84.76
2022-10-06T07:57:16.573Z,84.96
2022-10-06T07:59:48.894Z,84.75
2022-10-06T08:02:20.383Z,83.99
2022-10-06T08:04:50.205Z,83.72
2022-10-06T08:07:20.992Z,83.10
2022-10-06T08:09:54.733Z,81.82
2022-10-06T08:12:38.042Z,81.81
2022-10-06T08:15:13.807Z,82.64
2022-10-06T08:17:44.913Z,81.13
2022-10-06T08:20:17.263Z,81.53
2022-10-06T08:22:50.652Z,81.92
2022-10-06T08:25:21.370Z,81.07
2022-10-06T08:27:53.610Z,81.39
2022-10-06T08:30:27.402Z,81.53
2022-10-06T08:32:59.231Z,82.22
2022-10-06T08:35:30.521Z,81.01
2022-10-06T08:38:02.432Z,81.04
2022-10-06T08:40:34.545Z,80.44
2022-10-06T08:43:06.381Z,80.85
2022-10-06T08:45:45.477Z,80.23
2022-10-06T08:48:21.388Z,79.76
2022-10-06T08:51:01.974Z,79.06
2022-10-06T08:53:40.420Z,79.22
2022-10-06T08:56:18.328Z,78.06
2022-10-06T08:58:55.728Z,79.42
2022-10-06T09:01:33.699Z,78.56
2022-10-06T09:04:08.096Z,77.45
2022-10-06T09:06:49.547Z,77.90
2022-10-06T09:09:30.632Z,76.81
2022-10-06T09:12:10.230Z,77.46
2022-10-06T09:14:45.761Z,77.45
2022-10-06T09:17:26.216Z,76.87
2022-10-06T09:20:02.828Z,74.43
2022-10-06T09:22:34.505Z,73.24
2022-10-06T09:25:18.111Z,74.23
2022-10-06T09:27:51.677Z,74.95
2022-10-06T09:30:22.841Z,72.90
2022-10-06T09:33:00.587Z,73.93
2022-10-06T09:35:31.983Z,74.29
2022-10-06T09:38:08.591Z,71.78
2022-10-06T09:40:44.434Z,72.24
2022-10-06T09:43:25.560Z,72.88
2022-10-06T09:45:58.284Z,71.08
2022-10-06T09:48:30.637Z,72.01
2022-10-06T09:51:15.020Z,69.67
2022-10-06T09:54:07.745Z,71.60
2022-10-06T09:56:37.485Z,71.57
2022-10-06T09:59:17.690Z,71.56
2022-10-06T10:01:55.278Z,72.83
2022-10-06T10:04:30.416Z,73.10
2022-10-06T10:07:16.621Z,70.19
2022-10-06T10:09:46.404Z,69.47
2022-10-06T10:12:31.595Z,69.53
2022-10-06T10:15:04.557Z,70.33
2022-10-06T10:17:47.408Z,71.18
2022-10-06T10:20:37.497Z,70.02
2022-10-06T10:23:21.135Z,70.14
2022-10-06T10:26:04.514Z,69.73
2022-10-06T10:28:56.359Z,70.96
2022-10-06T10:31:39.477Z,71.15
2022-10-06T10:34:24.312Z,67.22
2022-10-06T10:37:00.195Z,68.62
2022-10-06T10:39:36.263Z,65.57
2022-10-06T10:42:15.436Z,65.79
2022-10-06T10:44:53.291Z,69.19
2022-10-06T10:47:28.597Z,69.62
2022-10-06T10:50:07.319Z,67.84
2022-10-06T10:52:44.082Z,67.61
2022-10-06T10:55:27.095Z,69.58
2022-10-06T10:58:01.166Z,67.94
2022-10-06T11:00:35.428Z,65.13
2022-10-06T11:03:05.403Z,63.64
2022-10-06T11:05:50.399Z,62.16
2022-10-06T11:08:30.660Z,61.83
2022-10-06T11:11:03.590Z,61.59
2022-10-06T11:13:41.419Z,60.81
2022-10-06T11:16:21.616Z,61.06
2022-10-06T11:19:14.821Z,61.50
2022-10-06T11:21:54.762Z,61.31
2022-10-06T11:24:38.351Z,60.24
2022-10-06T11:27:20.873Z,61.03
2022-10-06T11:30:05.317Z,62.12
2022-10-06T11:32:49.971Z,61.48
2022-10-06T11:35:23.253Z,63.25
2022-10-06T11:38:00.097Z,61.85
2022-10-06T11:40:48.036Z,62.19
2022-10-06T11:43:26.246Z,64.28
2022-10-06T11:46:04.580Z,62.55
2022-10-06T11:48:36.157Z,65.24
2022-10-06T11:51:33.327Z,62.78
2022-10-06T11:54:05.821Z,61.42
2022-10-06T11:56:42.511Z,63.39
2022-10-06T11:59:25.903Z,60.85
2022-10-06T12:01:58.777Z,62.16
2022-10-06T12:04:29.666Z,60.62
2022-10-06T12:07:08.308Z,59.99
2022-10-06T12:09:52.646Z,59.74
2022-10-06T12:13:06.881Z,59.03
2022-10-06T12:19:02.411Z,61.29
2022-10-06T12:21:46.763Z,60.50
2022-10-06T12:24:27.683Z,60.91
2022-10-06T12:27:13.705Z,58.51
2022-10-06T12:29:52.994Z,57.04
2022-10-06T12:32:40.273Z,58.95
2022-10-06T12:35:24.701Z,59.47
2022-10-06T12:37:55.422Z,55.77
2022-10-06T12:40:58.057Z,57.47
2022-10-06T12:43:37.137Z,58.67
2022-10-06T12:46:16.891Z,59.43
2022-10-06T12:48:56.403Z,59.32
2022-10-06T12:54:27.255Z,55.89
2022-10-06T12:57:02.080Z,56.94
2022-10-06T12:59:34.995Z,56.53
2022-10-06T13:02:13.199Z,56.30
2022-10-06T13:04:45.734Z,57.56
2022-10-06T13:07:20.840Z,58.45
2022-10-06T13:09:52.834Z,58.25
2022-10-06T13:12:26.254Z,59.34
2022-10-06T13:15:29.578Z,58.98
2022-10-06T13:18:12.709Z,57.00
2022-10-06T13:20:45.535Z,55.82
2022-10-06T13:23:28.708Z,57.40
2022-10-06T13:26:00.596Z,58.34
2022-10-06T13:28:42.784Z,58.54
2022-10-06T13:31:20.810Z,57.31
2022-10-06T13:33:57.178Z,56.88
2022-10-06T13:36:28.912Z,58.12
2022-10-06T13:39:00.100Z,57.45
2022-10-06T13:41:32.930Z,57.19
2022-10-06T13:44:07.230Z,56.36
2022-10-06T13:46:42.437Z,57.25
2022-10-06T13:49:21.540Z,58.09
2022-10-06T13:51:56.891Z,57.77
2022-10-06T13:54:32.174Z,56.96
2022-10-06T13:57:02.078Z,56.28
2022-10-06T13:59:38.509Z,55.98
2022-10-06T14:02:28.190Z,55.34
2022-10-06T14:05:29.946Z,54.53
2022-10-06T14:08:05.567Z,54.81
2022-10-06T14:10:47.456Z,57.04
2022-10-06T14:13:21.525Z,57.66
2022-10-06T14:15:54.875Z,59.23
2022-10-06T14:18:28.054Z,58.14
2022-10-06T14:21:01.607Z,57.07
2022-10-06T14:23:46.120Z,57.12
2022-10-06T14:26:17.593Z,57.37
2022-10-06T14:28:54.160Z,56.98
2022-10-06T14:31:25.039Z,57.63
2022-10-06T14:33:57.783Z,57.61
2022-10-06T14:36:33.619Z,55.59
2022-10-06T14:39:05.295Z,55.99
2022-10-06T14:41:37.346Z,55.83
2022-10-06T14:44:11.482Z,56.64
2022-10-06T14:46:43.975Z,56.59
2022-10-06T14:49:15.168Z,56.91
2022-10-06T14:51:47.691Z,55.69
2022-10-06T14:54:18.123Z,54.73
2022-10-06T14:56:52.285Z,56.10
2022-10-06T14:59:24.790Z,57.88
2022-10-06T15:01:55.600Z,55.03
2022-10-06T15:04:28.015Z,57.24
2022-10-06T15:07:13.829Z,56.09
2022-10-06T15:09:45.391Z,57.79
2022-10-06T15:12:17.860Z,58.41
2022-10-06T15:14:48.667Z,60.11
2022-10-06T15:17:19.416Z,59.13
2022-10-06T15:19:49.476Z,58.67
2022-10-06T15:22:22.783Z,59.11
2022-10-06T15:24:55.842Z,60.26
2022-10-06T15:30:12.320Z,59.20
2022-10-06T15:32:43.285Z,58.01
2022-10-06T15:35:13.022Z,58.83
2022-10-06T15:37:45.423Z,59.53
2022-10-06T15:40:15.200Z,59.42
2022-10-06T15:42:45.003Z,57.90
2022-10-06T15:45:16.991Z,58.04
2022-10-06T15:47:48.443Z,58.73
2022-10-06T15:50:19.371Z,57.93
2022-10-06T15:52:52.034Z,58.61
2022-10-06T15:55:22.731Z,58.39
2022-10-06T15:57:53.488Z,58.75
2022-10-06T16:00:24.199Z,59.97
2022-10-06T16:02:55.969Z,59.30
2022-10-06T16:05:38.986Z,59.24
2022-10-06T16:08:12.347Z,59.51
2022-10-06T16:10:43.011Z,60.62
2022-10-06T16:13:13.843Z,61.25
2022-10-06T16:15:45.697Z,60.81
2022-10-06T16:18:15.478Z,59.59
2022-10-06T16:20:45.245Z,59.37
2022-10-06T16:23:18.590Z,59.85
2022-10-06T16:25:49.478Z,60.44
2022-10-06T16:28:19.401Z,60.72
2022-10-06T16:30:57.228Z,60.22
2022-10-06T16:33:28.099Z,60.79
2022-10-06T16:35:58.347Z,61.12
2022-10-06T16:38:31.723Z,61.46
2022-10-06T16:41:02.867Z,62.22
2022-10-06T16:43:34.002Z,62.35
2022-10-06T16:46:06.424Z,62.39
2022-10-06T16:48:39.618Z,62.61
2022-10-06T16:51:11.408Z,63.17
2022-10-06T16:53:48.979Z,63.15
2022-10-06T16:56:20.581Z,63.83
2022-10-06T16:58:53.510Z,63.62
2022-10-06T17:01:25.422Z,63.70
2022-10-06T17:04:00.249Z,63.51
2022-10-06T17:06:30.051Z,63.87
2022-10-06T17:09:02.612Z,63.69
2022-10-06T17:11:32.425Z,64.37
2022-10-06T17:14:02.248Z,64.81
2022-10-06T17:16:34.483Z,64.91
2022-10-06T17:19:04.978Z,65.31
2022-10-06T17:21:55.689Z,65.40
2022-10-06T17:24:28.794Z,65.88
2022-10-06T17:27:01.102Z,66.05
2022-10-06T17:29:30.941Z,66.03
2022-10-06T17:32:02.736Z,66.22
2022-10-06T17:34:34.275Z,66.18
2022-10-06T17:37:05.155Z,66.36
2022-10-06T17:39:38.502Z,65.98
2022-10-06T17:42:08.944Z,66.42
2022-10-06T17:44:39.722Z,67.03
2022-10-06T17:47:12.635Z,66.93
2022-10-06T17:49:42.446Z,67.52
2022-10-06T17:52:12.406Z,68.09
2022-10-06T17:54:46.447Z,68.21
2022-10-06T17:57:16.293Z,68.41
2022-10-06T17:59:47.107Z,68.43
2022-10-06T18:02:17.125Z,68.08
2022-10-06T18:04:47.549Z,68.66
2022-10-06T18:07:18.294Z,68.38
2022-10-06T18:10:10.794Z,68.65
2022-10-06T18:12:38.544Z,69.13
2022-10-06T18:15:11.077Z,69.41
2022-10-06T18:17:42.362Z,69.44
2022-10-06T18:20:12.456Z,69.18
2022-10-06T18:22:43.833Z,68.91
2022-10-06T18:25:17.542Z,68.95
2022-10-06T18:27:49.244Z,68.80
2022-10-06T18:30:19.457Z,69.16
2022-10-06T18:38:31.516Z,69.79
2022-10-06T18:41:05.783Z,69.87
2022-10-06T18:43:36.651Z,70.10
2022-10-06T18:46:21.704Z,70.49
2022-10-06T18:48:58.662Z,70.85
2022-10-06T18:51:37.393Z,70.77
2022-10-06T18:54:10.967Z,70.69
2022-10-06T18:56:49.982Z,70.77
2022-10-06T18:59:23.389Z,70.99
2022-10-06T19:01:54.255Z,71.07
2022-10-06T19:04:27.119Z,71.23
2022-10-06T19:06:58.452Z,71.45
2022-10-06T19:09:29.362Z,71.78
2022-10-06T19:12:02.758Z,71.68
2022-10-06T19:14:35.942Z,71.85
2022-10-06T19:17:12.699Z,71.86
2022-10-06T19:19:45.637Z,72.16
2022-10-06T19:22:17.239Z,72.22
2022-10-06T19:24:48.656Z,72.44
2022-10-06T19:27:25.133Z,72.68
2022-10-06T19:29:57.748Z,73.04
2022-10-06T19:32:32.117Z,73.07
2022-10-06T19:35:09.223Z,73.38
2022-10-06T19:37:40.935Z,73.58
2022-10-06T19:40:11.555Z,73.73
2022-10-06T19:42:48.738Z,73.29
2022-10-06T19:45:21.052Z,73.89
2022-10-06T19:47:52.189Z,74.24
2022-10-06T19:50:23.122Z,74.27
2022-10-06T19:52:53.940Z,74.31
2022-10-06T19:55:26.037Z,73.87
2022-10-06T19:58:00.101Z,73.93
2022-10-06T20:00:31.358Z,74.17
2022-10-06T20:03:01.115Z,74.54
2022-10-06T20:05:31.864Z,74.56
2022-10-06T20:08:04.002Z,74.88
2022-10-06T20:10:34.880Z,75.29
2022-10-06T20:13:09.878Z,75.08
2022-10-06T20:15:40.706Z,75.13
2022-10-06T20:18:12.112Z,75.20
2022-10-06T20:20:42.935Z,75.17
2022-10-06T20:23:13.781Z,75.21
2022-10-06T20:25:44.569Z,74.94
2022-10-06T20:28:17.107Z,75.38
2022-10-06T20:30:50.098Z,75.57
2022-10-06T20:33:22.073Z,75.85
2022-10-06T20:35:51.828Z,76.25
2022-10-06T20:38:43.200Z,76.49
2022-10-06T20:41:10.381Z,77.11
2022-10-06T20:43:43.726Z,77.06
2022-10-06T20:46:14.797Z,77.44
2022-10-06T20:48:45.689Z,77.54
2022-10-06T20:51:16.500Z,77.29
2022-10-06T20:53:47.558Z,77.53
2022-10-06T20:56:18.159Z,77.33
2022-10-06T20:58:51.726Z,77.28
2022-10-06T21:01:24.769Z,77.22
2022-10-06T21:03:56.108Z,77.45
2022-10-06T21:06:27.249Z,77.51
2022-10-06T21:08:58.498Z,77.28
2022-10-06T21:11:29.658Z,77.49
2022-10-06T21:14:02.390Z,77.49
2022-10-06T21:16:37.084Z,77.43
2022-10-06T21:19:11.011Z,77.32
2022-10-06T21:21:41.236Z,77.52
2022-10-06T21:24:12.768Z,77.78
2022-10-06T21:26:42.999Z,77.73
2022-10-06T21:29:16.967Z,77.95
2022-10-06T21:31:47.768Z,78.03
2022-10-06T21:34:19.047Z,77.83
2022-10-06T21:36:49.000Z,78.01
2022-10-06T21:39:20.280Z,77.63
2022-10-06T21:41:50.354Z,77.73
2022-10-06T21:44:24.020Z,77.81
2022-10-06T21:46:55.620Z,77.90
2022-10-06T21:49:28.506Z,77.82
2022-10-06T21:52:04.871Z,77.63
2022-10-06T21:54:35.931Z,77.42
2022-10-06T21:57:08.267Z,77.49
2022-10-06T21:59:40.914Z,77.33
2022-10-06T22:02:12.041Z,77.89
2022-10-06T22:04:42.201Z,78.36
2022-10-06T22:07:12.247Z,78.28
2022-10-06T22:09:43.310Z,78.36
2022-10-06T22:12:14.392Z,77.70
2022-10-06T22:14:48.182Z,77.94
2022-10-06T22:17:18.260Z,78.05
2022-10-06T22:19:48.283Z,77.79
2022-10-06T22:22:18.461Z,78.06
2022-10-06T22:24:49.581Z,78.63
2022-10-06T22:27:19.653Z,79.00
2022-10-06T22:29:52.291Z,78.86
2022-10-06T22:32:23.459Z,79.34
2022-10-06T22:34:54.152Z,79.07
2022-10-06T22:37:25.319Z,79.44
2022-10-06T22:39:55.380Z,79.33
2022-10-06T22:42:25.428Z,79.37
2022-10-06T22:44:58.020Z,79.00
2022-10-06T22:47:28.015Z,79.19
2022-10-06T22:49:58.092Z,79.31
2022-10-06T22:52:28.073Z,79.33
2022-10-06T22:54:58.109Z,79.44
2022-10-06T22:57:28.121Z,79.30
2022-10-06T23:00:00.710Z,79.32
2022-10-06T23:02:30.700Z,79.59
2022-10-06T23:05:00.699Z,79.61
2022-10-06T23:07:31.420Z,79.37
2022-10-06T23:10:01.505Z,79.93
2022-10-06T23:12:31.670Z,79.67
2022-10-06T23:15:04.319Z,79.55
2022-10-06T23:17:34.338Z,79.74
2022-10-06T23:20:04.721Z,79.26
2022-10-06T23:22:34.772Z,79.19
2022-10-06T23:25:04.932Z,79.58
2022-10-06T23:27:35.141Z,79.62
2022-10-06T23:30:09.738Z,79.45
2022-10-06T23:32:40.985Z,79.89
2022-10-06T23:35:11.716Z,79.48
2022-10-06T23:37:42.216Z,79.62
2022-10-06T23:40:13.623Z,79.73
2022-10-06T23:42:43.680Z,80.08
2022-10-06T23:45:16.536Z,79.49
2022-10-06T23:47:46.862Z,79.26
2022-10-06T23:50:17.057Z,79.34
2022-10-06T23:52:47.062Z,79.69
2022-10-06T23:55:17.239Z,79.12
2022-10-06T23:57:47.293Z,78.94
